Terminal Aerodrome Forecast
Issued by NWS

Home | Current Version | Previous Version | Text Only | Print | Product List | Glossary On
Versions: 1 2 3 4 5 6 7 8 9 10 11 12 13 14 15 16 17 18 19 20 21 22 23 24 25 26 27 28
318
FTUS43 KPAH 261132
TAFCGI
TAF
KCGI 261132Z 2612/2712 16006KT P6SM FEW040 SCT180
     FM261400 18012G19KT P6SM BKN180
     FM261700 20015G23KT P6SM SCT025 BKN040
     FM262100 21011KT P6SM OVC025
     FM270100 20009KT P6SM OVC015
     FM270600 21005KT 6SM BR OVC009=

USA.gov is the U.S. government's official web portal to all federal, state and local government web resources and services.